createdAt,value
2024-02-29T00:00:10.863Z,101006.84
2024-02-29T00:02:37.252Z,101003.41
2024-02-29T00:05:04.763Z,100994.03
2024-02-29T00:07:32.062Z,101006.78
2024-02-29T00:09:59.377Z,101010.94
2024-02-29T00:12:26.006Z,101008.00
2024-02-29T00:14:52.987Z,101008.84
2024-02-29T00:17:20.889Z,101003.19
2024-02-29T00:19:47.255Z,101000.75
2024-02-29T00:22:13.756Z,100993.75
2024-02-29T00:24:40.219Z,101003.25
2024-02-29T00:27:08.124Z,101001.50
2024-02-29T00:29:35.652Z,100983.00
2024-02-29T00:32:02.233Z,100995.09
2024-02-29T00:34:31.375Z,100989.97
2024-02-29T00:36:58.498Z,100982.06
2024-02-29T00:39:24.866Z,100984.44
2024-02-29T00:41:51.350Z,100982.44
2024-02-29T00:44:17.713Z,100986.56
2024-02-29T00:46:44.155Z,100982.09
2024-02-29T00:49:12.640Z,100974.13
2024-02-29T00:51:39.354Z,100966.94
2024-02-29T00:54:05.832Z,100971.22
2024-02-29T00:56:32.184Z,100967.16
2024-02-29T00:58:58.557Z,100958.06
2024-02-29T01:01:24.969Z,100970.13
2024-02-29T01:03:51.831Z,100959.56
2024-02-29T01:07:18.723Z,100962.38
2024-02-29T01:09:45.369Z,100961.44
2024-02-29T01:12:11.792Z,100959.97
2024-02-29T01:14:38.254Z,100957.25
2024-02-29T01:17:04.763Z,100960.72
2024-02-29T01:19:31.125Z,100954.13
2024-02-29T01:21:57.631Z,100948.19
2024-02-29T01:24:25.618Z,100948.97
2024-02-29T01:26:53.166Z,100953.25
2024-02-29T01:29:19.617Z,100949.69
2024-02-29T01:31:46.126Z,100944.13
2024-02-29T01:34:12.666Z,100944.69
2024-02-29T01:36:39.211Z,100937.22
2024-02-29T01:39:05.579Z,100932.84
2024-02-29T01:41:31.917Z,100921.09
2024-02-29T01:43:58.394Z,100926.44
2024-02-29T01:46:24.825Z,100918.94
2024-02-29T01:48:52.070Z,100928.25
2024-02-29T01:51:19.454Z,100919.56
2024-02-29T01:53:45.866Z,100910.34
2024-02-29T01:56:15.826Z,100908.44
2024-02-29T01:58:42.913Z,100898.06
2024-02-29T02:01:09.789Z,100906.00
2024-02-29T02:03:36.559Z,100898.63
2024-02-29T02:06:03.065Z,100899.25
2024-02-29T02:08:32.803Z,100896.53
2024-02-29T02:10:59.319Z,100889.88
2024-02-29T02:13:25.729Z,100881.94
2024-02-29T02:15:52.446Z,100893.59
2024-02-29T02:18:18.854Z,100894.66
2024-02-29T02:20:45.430Z,100891.09
2024-02-29T02:23:13.478Z,100888.13
2024-02-29T02:25:39.868Z,100885.56
2024-02-29T02:28:06.413Z,100879.53
2024-02-29T02:30:32.848Z,100881.22
2024-02-29T02:32:59.506Z,100881.41
2024-02-29T02:35:25.880Z,100869.19
2024-02-29T02:37:52.248Z,100859.56
2024-02-29T02:40:19.179Z,100863.25
2024-02-29T02:42:45.681Z,100857.97
2024-02-29T02:45:12.103Z,100861.94
2024-02-29T02:47:38.595Z,100863.13
2024-02-29T02:50:05.564Z,100844.06
2024-02-29T02:52:31.916Z,100856.28
2024-02-29T02:54:58.304Z,100856.28
2024-02-29T02:57:24.780Z,100860.34
2024-02-29T02:59:51.148Z,100846.28
2024-02-29T03:02:17.559Z,100843.72
2024-02-29T03:04:43.987Z,100844.84
2024-02-29T03:07:10.438Z,100842.41
2024-02-29T03:09:36.869Z,100839.44
2024-02-29T03:12:03.406Z,100830.44
2024-02-29T03:14:30.489Z,100830.34
2024-02-29T03:16:56.922Z,100821.81
2024-02-29T03:19:23.362Z,100825.06
2024-02-29T03:21:49.869Z,100805.13
2024-02-29T03:24:16.537Z,100827.47
2024-02-29T03:26:42.979Z,100820.66
2024-02-29T03:29:09.345Z,100815.59
2024-02-29T03:31:35.819Z,100812.44
2024-02-29T03:34:03.749Z,100811.59
2024-02-29T03:36:30.328Z,100812.69
2024-02-29T03:38:56.758Z,100809.13
2024-02-29T03:41:23.163Z,100802.88
2024-02-29T03:43:49.623Z,100802.91
2024-02-29T03:46:16.116Z,100806.56
2024-02-29T03:48:42.554Z,100804.00
2024-02-29T03:51:09.622Z,100804.06
2024-02-29T03:53:36.103Z,100805.25
2024-02-29T03:56:02.459Z,100796.19
2024-02-29T03:58:28.847Z,100793.88
2024-02-29T04:00:55.838Z,100800.91
2024-02-29T04:03:22.253Z,100800.00
2024-02-29T04:05:48.655Z,100801.00
2024-02-29T04:08:15.078Z,100800.06
2024-02-29T04:10:46.144Z,100804.88
2024-02-29T04:13:12.685Z,100802.38
2024-02-29T04:15:39.151Z,100797.34
2024-02-29T04:18:06.205Z,100793.84
2024-02-29T04:20:32.808Z,100799.81
2024-02-29T04:22:59.178Z,100796.53
2024-02-29T04:25:25.688Z,100794.69
2024-02-29T04:27:52.458Z,100789.88
2024-02-29T04:30:19.397Z,100786.25
2024-02-29T04:32:46.315Z,100787.94
2024-02-29T04:35:12.833Z,100783.75
2024-02-29T04:37:39.792Z,100782.91
2024-02-29T04:40:10.940Z,100786.44
2024-02-29T04:42:38.421Z,100778.09
2024-02-29T04:45:05.455Z,100778.84
2024-02-29T04:47:32.293Z,100770.38
2024-02-29T04:49:59.468Z,100786.69
2024-02-29T04:52:25.845Z,100778.94
2024-02-29T04:54:52.332Z,100781.78
2024-02-29T04:57:18.779Z,100777.38
2024-02-29T04:59:45.184Z,100765.34
2024-02-29T05:02:11.670Z,100770.63
2024-02-29T05:04:38.742Z,100767.13
2024-02-29T05:07:05.446Z,100765.34
2024-02-29T05:09:32.847Z,100761.31
2024-02-29T05:11:59.225Z,100757.50
2024-02-29T05:14:25.620Z,100763.88
2024-02-29T05:16:51.973Z,100762.38
2024-02-29T05:19:18.345Z,100752.84
2024-02-29T05:21:46.533Z,100736.22
2024-02-29T05:24:13.108Z,100764.22
2024-02-29T05:26:39.598Z,100754.47
2024-02-29T05:29:07.156Z,100751.97
2024-02-29T05:31:33.502Z,100744.38
2024-02-29T05:33:59.935Z,100744.06
2024-02-29T05:36:26.365Z,100732.25
2024-02-29T05:38:52.697Z,100748.09
2024-02-29T05:41:19.350Z,100747.66
2024-02-29T05:43:47.044Z,100741.38
2024-02-29T05:46:14.100Z,100731.19
2024-02-29T05:48:40.625Z,100721.47
2024-02-29T05:51:09.221Z,100734.38
2024-02-29T05:53:35.608Z,100736.09
2024-02-29T05:56:01.969Z,100737.00
2024-02-29T05:58:31.801Z,100738.75
2024-02-29T06:00:58.707Z,100739.69
2024-02-29T06:03:25.116Z,100742.75
2024-02-29T06:05:51.461Z,100745.59
2024-02-29T06:08:17.882Z,100741.75
2024-02-29T06:10:47.880Z,100736.91
2024-02-29T06:13:15.278Z,100743.16
2024-02-29T06:15:42.937Z,100718.75
2024-02-29T06:18:10.957Z,100727.16
2024-02-29T06:20:37.379Z,100731.28
2024-02-29T06:23:04.089Z,100728.00
2024-02-29T06:25:30.544Z,100738.63
2024-02-29T06:27:56.932Z,100736.28
2024-02-29T06:30:30.108Z,100733.28
2024-02-29T06:32:56.497Z,100735.06
2024-02-29T06:35:23.075Z,100737.53
2024-02-29T06:37:49.492Z,100738.38
2024-02-29T06:40:15.937Z,100731.06
2024-02-29T06:42:42.630Z,100734.56
2024-02-29T06:45:10.341Z,100725.75
2024-02-29T06:47:39.774Z,100736.09
2024-02-29T06:50:07.161Z,100729.75
2024-02-29T06:52:33.593Z,100735.56
2024-02-29T06:55:00.003Z,100732.66
2024-02-29T06:57:27.003Z,100726.50
2024-02-29T06:59:53.906Z,100728.31
2024-02-29T07:02:20.311Z,100728.13
2024-02-29T07:04:46.742Z,100727.75
2024-02-29T07:07:13.325Z,100725.25
2024-02-29T07:09:42.385Z,100713.25
2024-02-29T07:12:09.065Z,100716.34
2024-02-29T07:14:35.481Z,100715.28
2024-02-29T07:17:01.911Z,100713.94
2024-02-29T07:19:28.300Z,100720.72
2024-02-29T07:21:54.736Z,100720.31
2024-02-29T07:24:21.214Z,100714.72
2024-02-29T07:26:47.564Z,100698.16
2024-02-29T07:29:13.994Z,100707.13
2024-02-29T07:31:41.968Z,100705.94
2024-02-29T07:34:08.770Z,100702.22
2024-02-29T07:36:35.189Z,100706.25
2024-02-29T07:39:01.572Z,100702.34
2024-02-29T07:41:27.998Z,100700.44
2024-02-29T07:43:54.552Z,100695.59
2024-02-29T07:46:20.933Z,100697.66
2024-02-29T07:48:49.029Z,100691.16
2024-02-29T07:51:18.776Z,100697.44
2024-02-29T07:53:45.144Z,100698.72
2024-02-29T07:56:11.495Z,100697.59
2024-02-29T07:58:37.834Z,100689.28
2024-02-29T08:01:04.374Z,100678.25
2024-02-29T08:03:31.426Z,100692.13
2024-02-29T08:06:02.059Z,100684.66
2024-02-29T08:08:28.541Z,100687.09
2024-02-29T08:10:55.165Z,100689.19
2024-02-29T08:13:21.631Z,100685.13
2024-02-29T08:15:48.223Z,100677.84
2024-02-29T08:18:15.017Z,100683.19
2024-02-29T08:20:41.863Z,100687.81
2024-02-29T08:23:08.226Z,100672.56
2024-02-29T08:25:34.602Z,100675.75
2024-02-29T08:28:01.000Z,100677.09
2024-02-29T08:30:27.452Z,100681.56
2024-02-29T08:32:53.891Z,100684.66
2024-02-29T08:35:20.254Z,100677.56
2024-02-29T08:37:46.609Z,100685.44
2024-02-29T08:40:13.248Z,100683.28
2024-02-29T08:42:39.713Z,100685.19
2024-02-29T08:45:08.287Z,100682.44
2024-02-29T08:47:34.798Z,100675.78
2024-02-29T08:50:01.265Z,100668.34
2024-02-29T08:52:27.844Z,100679.03
2024-02-29T08:54:54.443Z,100673.03
2024-02-29T08:57:20.879Z,100666.88
2024-02-29T08:59:47.286Z,100672.63
2024-02-29T09:02:13.975Z,100668.59
2024-02-29T09:04:40.459Z,100658.75
2024-02-29T09:07:06.857Z,100660.72
2024-02-29T09:09:33.269Z,100663.13
2024-02-29T09:11:59.728Z,100661.59
2024-02-29T09:14:26.256Z,100652.34
2024-02-29T09:16:52.601Z,100656.03
2024-02-29T09:19:19.014Z,100658.00
2024-02-29T09:21:45.614Z,100662.63
2024-02-29T09:24:15.728Z,100641.50
2024-02-29T09:26:42.526Z,100647.72
2024-02-29T09:29:08.912Z,100643.09
2024-02-29T09:31:35.295Z,100634.47
2024-02-29T09:34:01.749Z,100639.34
2024-02-29T09:36:30.955Z,100622.38
2024-02-29T09:38:57.352Z,100625.97
2024-02-29T09:41:33.062Z,100621.63
2024-02-29T09:44:10.391Z,100624.28
2024-02-29T09:46:38.934Z,100623.38
2024-02-29T09:49:05.481Z,100623.69
2024-02-29T09:51:32.457Z,100622.16
2024-02-29T09:54:00.445Z,100605.56
2024-02-29T09:56:29.033Z,100616.56
2024-02-29T09:58:55.565Z,100610.88
2024-02-29T10:01:23.191Z,100614.13
2024-02-29T10:03:49.956Z,100601.78
2024-02-29T10:06:16.437Z,100588.59
2024-02-29T10:08:42.868Z,100605.41
2024-02-29T10:11:09.294Z,100605.47
2024-02-29T10:13:42.427Z,100592.28
2024-02-29T10:16:09.584Z,100595.31
2024-02-29T10:18:37.728Z,100595.69
2024-02-29T10:21:15.843Z,100588.88
2024-02-29T10:23:43.452Z,100588.50
2024-02-29T10:26:10.297Z,100583.84
2024-02-29T10:28:36.873Z,100581.59
2024-02-29T10:31:04.102Z,100581.91
2024-02-29T10:33:30.571Z,100581.38
2024-02-29T10:35:57.714Z,100576.69
2024-02-29T10:38:24.422Z,100565.75
2024-02-29T10:40:52.569Z,100565.09
2024-02-29T10:43:21.644Z,100555.44
2024-02-29T10:45:51.772Z,100559.38
2024-02-29T10:48:21.915Z,100569.16
2024-02-29T10:51:01.468Z,100552.16
2024-02-29T10:53:39.796Z,100556.41
2024-02-29T10:56:16.528Z,100547.91
2024-02-29T10:58:45.129Z,100543.97
2024-02-29T11:01:13.606Z,100537.41
2024-02-29T11:03:40.498Z,100539.63
2024-02-29T11:06:08.432Z,100531.72
2024-02-29T11:08:35.528Z,100535.97
2024-02-29T11:11:01.953Z,100521.75
2024-02-29T11:13:30.110Z,100526.19
2024-02-29T11:15:57.159Z,100519.78
2024-02-29T11:18:29.028Z,100504.03
2024-02-29T11:21:04.023Z,100494.16
2024-02-29T11:23:34.128Z,100490.25
2024-02-29T11:26:01.770Z,100482.88
2024-02-29T11:28:38.923Z,100476.53
2024-02-29T11:31:15.025Z,100474.16
2024-02-29T11:33:43.034Z,100472.03
2024-02-29T11:36:11.905Z,100463.38
2024-02-29T11:38:40.571Z,100454.41
2024-02-29T11:41:20.614Z,100442.94
2024-02-29T11:43:48.182Z,100442.91
2024-02-29T11:46:15.230Z,100436.38
2024-02-29T11:48:42.132Z,100431.31
2024-02-29T11:51:08.935Z,100427.44
2024-02-29T11:53:36.991Z,100421.59
2024-02-29T11:56:10.953Z,100410.91
2024-02-29T11:58:42.452Z,100409.38
2024-02-29T12:01:12.792Z,100411.06
2024-02-29T12:03:39.373Z,100394.56
2024-02-29T12:06:06.780Z,100386.97
2024-02-29T12:08:33.481Z,100387.91
2024-02-29T12:11:00.593Z,100382.72
2024-02-29T12:13:28.845Z,100383.03
2024-02-29T12:15:56.403Z,100377.63
2024-02-29T12:18:23.539Z,100372.38
2024-02-29T12:20:50.641Z,100360.09
2024-02-29T12:23:18.730Z,100358.56
2024-02-29T12:25:45.822Z,100351.63
2024-02-29T12:28:15.485Z,100347.50
2024-02-29T12:30:42.717Z,100343.94
2024-02-29T12:33:14.056Z,100343.09
2024-02-29T12:35:43.486Z,100332.97
2024-02-29T12:38:14.940Z,100333.09
2024-02-29T12:40:41.604Z,100334.72
2024-02-29T12:43:08.113Z,100329.56
2024-02-29T12:45:34.665Z,100322.44
2024-02-29T12:48:01.581Z,100318.50
2024-02-29T12:50:27.927Z,100319.34
2024-02-29T12:52:58.042Z,100309.84
2024-02-29T12:55:24.665Z,100308.84
2024-02-29T12:57:51.148Z,100303.06
2024-02-29T13:00:24.289Z,100289.75
2024-02-29T13:02:51.485Z,100275.53
2024-02-29T13:05:18.800Z,100259.00
2024-02-29T13:07:45.655Z,100262.69
2024-02-29T13:10:12.355Z,100257.16
2024-02-29T13:12:41.278Z,100254.34
2024-02-29T13:15:08.239Z,100251.66
2024-02-29T13:17:35.269Z,100243.75
2024-02-29T13:20:02.237Z,100242.06
2024-02-29T13:22:28.694Z,100221.59
2024-02-29T13:24:55.235Z,100214.69
2024-02-29T13:27:21.731Z,100212.28
2024-02-29T13:29:48.144Z,100200.16
2024-02-29T13:32:14.546Z,100196.63
2024-02-29T13:34:40.962Z,100198.47
2024-02-29T13:37:07.684Z,100190.00
2024-02-29T13:39:34.285Z,100186.22
2024-02-29T13:42:05.829Z,100173.38
2024-02-29T13:44:33.440Z,100168.84
2024-02-29T13:46:59.897Z,100171.78
2024-02-29T13:49:26.376Z,100163.50
2024-02-29T13:51:53.713Z,100155.56
2024-02-29T13:54:20.575Z,100150.34
2024-02-29T13:56:47.426Z,100144.59
2024-02-29T13:59:13.989Z,100143.72
2024-02-29T14:01:40.392Z,100140.91
2024-02-29T14:04:06.843Z,100131.59
2024-02-29T14:06:33.658Z,100136.69
2024-02-29T14:09:00.048Z,100122.84
2024-02-29T14:11:26.501Z,100124.25
2024-02-29T14:13:53.375Z,100123.16
2024-02-29T14:16:19.828Z,100112.28
2024-02-29T14:18:46.362Z,100103.41
2024-02-29T14:21:16.211Z,100093.84
2024-02-29T14:23:43.080Z,100091.72
2024-02-29T14:26:09.989Z,100075.66
2024-02-29T14:28:36.473Z,100068.47
2024-02-29T14:31:04.317Z,100072.97
2024-02-29T14:33:30.830Z,100063.50
2024-02-29T14:35:57.697Z,100057.31
2024-02-29T14:38:24.160Z,100057.19
2024-02-29T14:40:51.360Z,100045.19
2024-02-29T14:43:17.874Z,100045.03
2024-02-29T14:45:44.415Z,100042.38
2024-02-29T14:48:10.949Z,100040.69
2024-02-29T14:50:37.463Z,100030.38
2024-02-29T14:53:03.986Z,100023.63
2024-02-29T14:55:30.475Z,100015.72
2024-02-29T14:57:56.942Z,100014.72
2024-02-29T15:00:23.534Z,100011.22
2024-02-29T15:02:49.992Z,100005.84
2024-02-29T15:05:16.437Z,100006.28
2024-02-29T15:07:43.587Z,100000.91
2024-02-29T15:10:13.562Z,99997.25
2024-02-29T15:12:40.327Z,99988.22
2024-02-29T15:15:07.653Z,99992.56
2024-02-29T15:17:34.542Z,99981.31
2024-02-29T15:20:00.999Z,99987.78
2024-02-29T15:22:27.446Z,99981.00
2024-02-29T15:24:53.952Z,99982.28
2024-02-29T15:27:20.458Z,99986.50
2024-02-29T15:29:49.277Z,99974.53
2024-02-29T15:32:16.200Z,99974.50
2024-02-29T15:34:44.397Z,99973.53
2024-02-29T15:37:12.156Z,99961.84
2024-02-29T15:39:38.616Z,99961.13
2024-02-29T15:42:07.984Z,99953.56
2024-02-29T15:44:34.742Z,99957.06
2024-02-29T15:47:01.238Z,99958.22
2024-02-29T15:49:27.752Z,99951.97
2024-02-29T15:51:54.162Z,99936.38
2024-02-29T15:54:22.262Z,99938.19
2024-02-29T15:56:49.099Z,99926.91
2024-02-29T15:59:16.722Z,99928.63
2024-02-29T16:01:43.257Z,99935.94
2024-02-29T16:04:09.769Z,99919.44
2024-02-29T16:06:36.308Z,99918.59
2024-02-29T16:09:02.992Z,99922.28
2024-02-29T16:11:29.890Z,99921.59
2024-02-29T16:13:56.312Z,99923.16
2024-02-29T16:16:23.330Z,99914.41
2024-02-29T16:18:50.221Z,99910.47
2024-02-29T16:21:16.827Z,99903.72
2024-02-29T16:23:43.341Z,99904.56
2024-02-29T16:26:09.858Z,99900.50
2024-02-29T16:28:36.386Z,99895.41
2024-02-29T16:31:04.799Z,99888.13
2024-02-29T16:33:31.360Z,99887.84
2024-02-29T16:35:57.771Z,99882.06
2024-02-29T16:38:24.231Z,99880.94
2024-02-29T16:40:55.317Z,99877.00
2024-02-29T16:43:24.850Z,99882.91
2024-02-29T16:45:51.684Z,99871.09
2024-02-29T16:48:18.155Z,99877.44
2024-02-29T16:50:46.240Z,99875.19
2024-02-29T16:53:12.923Z,99880.53
2024-02-29T16:55:39.325Z,99874.47
2024-02-29T16:58:05.891Z,99873.50
2024-02-29T17:00:32.641Z,99877.44
2024-02-29T17:03:00.142Z,99868.16
2024-02-29T17:05:26.978Z,99870.56
2024-02-29T17:07:53.471Z,99864.78
2024-02-29T17:10:20.044Z,99865.75
2024-02-29T17:12:46.496Z,99860.41
2024-02-29T17:15:12.913Z,99858.81
2024-02-29T17:17:39.352Z,99862.91
2024-02-29T17:20:06.933Z,99866.94
2024-02-29T17:22:33.388Z,99862.66
2024-02-29T17:24:59.829Z,99864.34
2024-02-29T17:27:26.712Z,99864.09
2024-02-29T17:29:53.665Z,99871.09
2024-02-29T17:32:20.627Z,99864.59
2024-02-29T17:34:48.821Z,99859.91
2024-02-29T17:37:15.322Z,99862.88
2024-02-29T17:39:42.646Z,99863.22
2024-02-29T17:42:09.050Z,99867.53
2024-02-29T17:44:35.509Z,99864.88
2024-02-29T17:47:01.973Z,99854.00
2024-02-29T17:49:30.568Z,99856.44
2024-02-29T17:51:57.644Z,99847.78
2024-02-29T17:54:24.264Z,99845.38
2024-02-29T17:56:53.519Z,99843.19
2024-02-29T17:59:21.639Z,99845.75
2024-02-29T18:01:48.201Z,99838.94
2024-02-29T18:04:14.839Z,99836.59
2024-02-29T18:06:41.282Z,99837.22
2024-02-29T18:09:11.241Z,99831.69
2024-02-29T18:11:38.300Z,99836.06
2024-02-29T18:14:04.792Z,99818.66
2024-02-29T18:16:33.801Z,99819.69
2024-02-29T18:19:00.635Z,99827.75
2024-02-29T18:21:27.322Z,99833.28
2024-02-29T18:23:53.752Z,99828.78
2024-02-29T18:26:22.633Z,99833.28
2024-02-29T18:28:49.422Z,99833.06
2024-02-29T18:31:15.902Z,99832.72
2024-02-29T18:33:42.455Z,99824.44
2024-02-29T18:36:09.028Z,99825.78
2024-02-29T18:38:35.434Z,99815.84
2024-02-29T18:41:01.820Z,99813.69
2024-02-29T18:43:28.237Z,99815.97
2024-02-29T18:46:03.153Z,99814.16
2024-02-29T18:48:32.632Z,99807.88
2024-02-29T18:50:59.097Z,99809.19
2024-02-29T18:53:25.442Z,99804.03
2024-02-29T18:55:52.551Z,99791.34
2024-02-29T18:58:18.968Z,99797.88
2024-02-29T19:00:45.440Z,99798.97
2024-02-29T19:03:14.071Z,99786.03
2024-02-29T19:05:40.935Z,99790.63
2024-02-29T19:08:08.218Z,99782.66
2024-02-29T19:10:34.663Z,99775.38
2024-02-29T19:13:01.182Z,99788.97
2024-02-29T19:15:27.598Z,99772.66
2024-02-29T19:17:53.971Z,99781.38
2024-02-29T19:20:20.462Z,99768.69
2024-02-29T19:22:46.831Z,99763.34
2024-02-29T19:25:13.313Z,99760.47
2024-02-29T19:27:39.741Z,99770.50
2024-02-29T19:30:09.601Z,99755.28
2024-02-29T19:32:36.095Z,99766.16
2024-02-29T19:35:02.494Z,99753.34
2024-02-29T19:37:29.067Z,99753.47
2024-02-29T19:39:55.622Z,99748.13
2024-02-29T19:42:22.069Z,99744.75
2024-02-29T19:44:48.492Z,99739.56
2024-02-29T19:47:17.299Z,99739.81
2024-02-29T19:49:43.625Z,99729.88
2024-02-29T19:52:10.076Z,99741.13
2024-02-29T19:54:38.412Z,99729.41
2024-02-29T19:57:05.092Z,99730.84
2024-02-29T19:59:31.490Z,99729.47
2024-02-29T20:01:57.981Z,99734.91
2024-02-29T20:04:29.156Z,99733.34
2024-02-29T20:06:55.960Z,99737.91
2024-02-29T20:09:23.005Z,99735.38
2024-02-29T20:11:49.387Z,99731.28
2024-02-29T20:14:15.750Z,99737.63
2024-02-29T20:16:42.317Z,99737.38
2024-02-29T20:19:09.713Z,99738.34
2024-02-29T20:21:36.248Z,99736.66
2024-02-29T20:24:02.701Z,99733.72
2024-02-29T20:26:29.167Z,99731.91
2024-02-29T20:28:55.559Z,99722.38
2024-02-29T20:31:22.190Z,99720.81
2024-02-29T20:33:48.605Z,99735.63
2024-02-29T20:36:15.127Z,99718.50
2024-02-29T20:38:41.549Z,99720.31
2024-02-29T20:41:09.406Z,99726.81
2024-02-29T20:43:35.875Z,99724.09
2024-02-29T20:46:02.384Z,99706.56
2024-02-29T20:48:28.802Z,99712.16
2024-02-29T20:50:55.187Z,99710.28
2024-02-29T20:53:21.880Z,99708.53
2024-02-29T20:55:48.339Z,99708.28
2024-02-29T20:58:15.614Z,99714.44
2024-02-29T21:00:42.083Z,99708.28
2024-02-29T21:03:09.002Z,99707.94
2024-02-29T21:05:35.461Z,99702.63
2024-02-29T21:08:01.836Z,99703.56
2024-02-29T21:10:28.295Z,99708.84
2024-02-29T21:12:56.938Z,99698.84
2024-02-29T21:15:23.793Z,99701.50
2024-02-29T21:17:51.590Z,99703.50
2024-02-29T21:20:18.906Z,99693.69
2024-02-29T21:22:45.545Z,99703.94
2024-02-29T21:25:12.287Z,99693.38
2024-02-29T21:27:39.687Z,99697.97
2024-02-29T21:30:08.285Z,99696.34
2024-02-29T21:32:34.936Z,99698.56
2024-02-29T21:35:01.949Z,99696.03
2024-02-29T21:37:28.412Z,99674.97
2024-02-29T21:39:58.087Z,99690.22
2024-02-29T21:42:24.525Z,99690.97
2024-02-29T21:44:51.775Z,99684.91
2024-02-29T21:47:18.194Z,99685.97
2024-02-29T21:49:45.801Z,99676.94
2024-02-29T21:52:12.864Z,99684.72
2024-02-29T21:54:39.860Z,99684.53
2024-02-29T21:57:06.248Z,99683.78
2024-02-29T21:59:32.669Z,99677.31
2024-02-29T22:02:01.323Z,99682.75
2024-02-29T22:04:27.986Z,99677.00
2024-02-29T22:06:54.379Z,99680.44
2024-02-29T22:09:20.874Z,99683.94
2024-02-29T22:11:47.292Z,99683.09
2024-02-29T22:14:13.668Z,99674.84
2024-02-29T22:16:43.713Z,99670.50
2024-02-29T22:19:11.795Z,99679.72
2024-02-29T22:21:38.265Z,99661.19
2024-02-29T22:24:05.416Z,99675.50
2024-02-29T22:26:31.900Z,99685.44
2024-02-29T22:28:58.285Z,99682.06
2024-02-29T22:31:24.711Z,99678.38
2024-02-29T22:33:54.353Z,99670.63
2024-02-29T22:36:20.741Z,99669.97
2024-02-29T22:38:49.763Z,99676.94
2024-02-29T22:41:16.608Z,99685.44
2024-02-29T22:43:43.011Z,99674.22
2024-02-29T22:46:09.666Z,99676.56
2024-02-29T22:48:36.347Z,99675.06
2024-02-29T22:51:02.845Z,99676.97
2024-02-29T22:53:29.252Z,99671.06
2024-02-29T22:55:55.923Z,99666.81
2024-02-29T22:58:22.601Z,99674.34
2024-02-29T23:03:18.316Z,99668.72
2024-02-29T23:05:44.758Z,99678.06
2024-02-29T23:08:11.597Z,99673.41
2024-02-29T23:10:41.173Z,99673.94
2024-02-29T23:13:07.725Z,99664.19
2024-02-29T23:15:34.460Z,99671.38
2024-02-29T23:18:01.472Z,99662.16
2024-02-29T23:20:27.999Z,99664.28
2024-02-29T23:22:54.393Z,99665.97
2024-02-29T23:25:24.545Z,99664.72
2024-02-29T23:27:51.670Z,99680.56
2024-02-29T23:30:18.248Z,99673.81
2024-02-29T23:32:44.703Z,99668.81
2024-02-29T23:35:11.076Z,99661.94
2024-02-29T23:37:37.453Z,99664.34
2024-02-29T23:40:04.410Z,99664.69
2024-02-29T23:42:30.828Z,99662.22
2024-02-29T23:44:57.191Z,99653.16
2024-02-29T23:47:23.586Z,99649.66
2024-02-29T23:49:50.309Z,99645.63
2024-02-29T23:52:16.760Z,99645.00
2024-02-29T23:54:44.704Z,99646.69
2024-02-29T23:57:11.280Z,99637.34
2024-02-29T23:59:37.714Z,99642.84
